Hartland, Ohio
Current Conditions -  °F | °C
As of 5:29 PM on Friday 24 Oct 2014 (Local Time) from KLPR Reporting Station
Haze Haze  
Wind Chill: 58°   Ceiling: 4300
Heat Index: 58°   Visibility: 3mi
Dew Point: 44°   Wind: 5mph
Humidity: 60%   Direction: 350°N
Pressure: 30"   Gusts: NA
Location:  41.2186°N, 82.5851°W
Report Text: KLPR 242129Z AUTO 35004KT 3SM HZ OVC043 14/07 A3000 RMK AO2 T01440067 TSNO
Loading
Personal Weather Stations






























Interactive Weather Map
Tropical Storm Tracking
New forecast layout! Learn more

10-Day Weather Forecast

Advertisements
Track Severe Weather on mobile